sensor_id;sensor_type;location;lat;lon;timestamp;temperature;humidity
3699;DHT22;1865;50.918;7.092;2022-09-09T00:02:22;21.00;58.30
3699;DHT22;1865;50.918;7.092;2022-09-09T00:05:04;21.00;58.20
3699;DHT22;1865;50.918;7.092;2022-09-09T00:07:47;21.00;58.10
3699;DHT22;1865;50.918;7.092;2022-09-09T00:10:29;21.00;57.90
3699;DHT22;1865;50.918;7.092;2022-09-09T00:18:13;21.20;57.30
3699;DHT22;1865;50.918;7.092;2022-09-09T00:23:50;21.20;57.30
3699;DHT22;1865;50.918;7.092;2022-09-09T00:27:06;21.20;56.90
3699;DHT22;1865;50.918;7.092;2022-09-09T00:29:41;21.10;57.10
3699;DHT22;1865;50.918;7.092;2022-09-09T00:32:16;21.20;56.70
3699;DHT22;1865;50.918;7.092;2022-09-09T00:34:52;21.20;56.80
3699;DHT22;1865;50.918;7.092;2022-09-09T00:37:20;21.20;57.10
3699;DHT22;1865;50.918;7.092;2022-09-09T00:39:48;21.20;56.90
3699;DHT22;1865;50.918;7.092;2022-09-09T00:45:02;21.10;56.60
3699;DHT22;1865;50.918;7.092;2022-09-09T00:47:46;21.10;56.80
3699;DHT22;1865;50.918;7.092;2022-09-09T00:53:19;21.00;57.70
3699;DHT22;1865;50.918;7.092;2022-09-09T00:56:13;21.00;57.50
3699;DHT22;1865;50.918;7.092;2022-09-09T00:58:43;20.90;57.30
3699;DHT22;1865;50.918;7.092;2022-09-09T01:01:12;20.90;57.60
3699;DHT22;1865;50.918;7.092;2022-09-09T01:03:59;20.80;58.20
3699;DHT22;1865;50.918;7.092;2022-09-09T01:06:34;20.80;58.00
3699;DHT22;1865;50.918;7.092;2022-09-09T01:12:17;20.80;57.90
3699;DHT22;1865;50.918;7.092;2022-09-09T01:14:49;20.70;58.40
3699;DHT22;1865;50.918;7.092;2022-09-09T01:17:24;20.70;58.20
3699;DHT22;1865;50.918;7.092;2022-09-09T01:20:04;20.80;58.10
3699;DHT22;1865;50.918;7.092;2022-09-09T01:28:13;20.80;57.50
3699;DHT22;1865;50.918;7.092;2022-09-09T01:30:41;20.80;57.60
3699;DHT22;1865;50.918;7.092;2022-09-09T01:33:15;20.80;57.30
3699;DHT22;1865;50.918;7.092;2022-09-09T01:38:24;20.80;57.30
3699;DHT22;1865;50.918;7.092;2022-09-09T01:40:51;20.80;57.40
3699;DHT22;1865;50.918;7.092;2022-09-09T01:43:21;20.70;57.40
3699;DHT22;1865;50.918;7.092;2022-09-09T01:46:04;20.70;57.20
3699;DHT22;1865;50.918;7.092;2022-09-09T01:48:30;20.80;57.10
3699;DHT22;1865;50.918;7.092;2022-09-09T01:50:56;20.80;57.10
3699;DHT22;1865;50.918;7.092;2022-09-09T01:53:22;20.80;56.80
3699;DHT22;1865;50.918;7.092;2022-09-09T01:56:22;20.70;56.90
3699;DHT22;1865;50.918;7.092;2022-09-09T02:07:00;20.80;56.60
3699;DHT22;1865;50.918;7.092;2022-09-09T02:09:26;20.80;56.60
3699;DHT22;1865;50.918;7.092;2022-09-09T02:12:14;20.80;56.50
3699;DHT22;1865;50.918;7.092;2022-09-09T02:14:53;20.80;56.40
3699;DHT22;1865;50.918;7.092;2022-09-09T02:17:27;20.90;56.30
3699;DHT22;1865;50.918;7.092;2022-09-09T02:20:03;20.90;56.20
3699;DHT22;1865;50.918;7.092;2022-09-09T02:22:31;20.90;56.30
3699;DHT22;1865;50.918;7.092;2022-09-09T02:25:00;20.90;56.30
3699;DHT22;1865;50.918;7.092;2022-09-09T02:27:27;21.00;56.10
3699;DHT22;1865;50.918;7.092;2022-09-09T02:29:56;21.00;56.30
3699;DHT22;1865;50.918;7.092;2022-09-09T02:32:24;20.90;56.50
3699;DHT22;1865;50.918;7.092;2022-09-09T02:34:58;21.00;56.30
3699;DHT22;1865;50.918;7.092;2022-09-09T02:37:33;21.00;56.30
3699;DHT22;1865;50.918;7.092;2022-09-09T02:40:03;21.00;56.20
3699;DHT22;1865;50.918;7.092;2022-09-09T02:42:32;20.90;56.90
3699;DHT22;1865;50.918;7.092;2022-09-09T02:45:03;20.90;56.40
3699;DHT22;1865;50.918;7.092;2022-09-09T02:50:12;21.00;56.40
3699;DHT22;1865;50.918;7.092;2022-09-09T02:52:51;20.90;56.50
3699;DHT22;1865;50.918;7.092;2022-09-09T02:55:29;20.80;56.60
3699;DHT22;1865;50.918;7.092;2022-09-09T02:57:59;20.80;56.80
3699;DHT22;1865;50.918;7.092;2022-09-09T03:00:27;20.90;57.00
3699;DHT22;1865;50.918;7.092;2022-09-09T03:02:54;20.90;57.10
3699;DHT22;1865;50.918;7.092;2022-09-09T03:05:20;20.90;57.00
3699;DHT22;1865;50.918;7.092;2022-09-09T03:07:47;20.90;56.60
3699;DHT22;1865;50.918;7.092;2022-09-09T03:10:16;20.90;56.40
3699;DHT22;1865;50.918;7.092;2022-09-09T03:12:41;21.00;56.30
3699;DHT22;1865;50.918;7.092;2022-09-09T03:15:07;21.00;56.20
3699;DHT22;1865;50.918;7.092;2022-09-09T03:17:33;21.00;56.20
3699;DHT22;1865;50.918;7.092;2022-09-09T03:20:04;21.00;55.70
3699;DHT22;1865;50.918;7.092;2022-09-09T03:22:34;20.90;55.80
3699;DHT22;1865;50.918;7.092;2022-09-09T03:24:59;20.90;56.00
3699;DHT22;1865;50.918;7.092;2022-09-09T03:27:27;20.90;56.00
3699;DHT22;1865;50.918;7.092;2022-09-09T03:29:54;20.90;56.20
3699;DHT22;1865;50.918;7.092;2022-09-09T03:32:22;21.00;55.90
3699;DHT22;1865;50.918;7.092;2022-09-09T03:34:48;21.00;55.70
3699;DHT22;1865;50.918;7.092;2022-09-09T03:37:15;21.00;55.60
3699;DHT22;1865;50.918;7.092;2022-09-09T03:39:43;21.00;55.40
3699;DHT22;1865;50.918;7.092;2022-09-09T03:42:08;21.00;55.50
3699;DHT22;1865;50.918;7.092;2022-09-09T03:44:35;21.10;55.20
3699;DHT22;1865;50.918;7.092;2022-09-09T03:47:02;21.10;55.20
3699;DHT22;1865;50.918;7.092;2022-09-09T03:49:28;21.00;55.00
3699;DHT22;1865;50.918;7.092;2022-09-09T03:51:55;21.10;55.10
3699;DHT22;1865;50.918;7.092;2022-09-09T03:54:22;21.10;55.20
3699;DHT22;1865;50.918;7.092;2022-09-09T03:56:47;21.20;55.30
3699;DHT22;1865;50.918;7.092;2022-09-09T03:59:14;21.10;55.20
3699;DHT22;1865;50.918;7.092;2022-09-09T04:01:40;21.10;55.00
3699;DHT22;1865;50.918;7.092;2022-09-09T04:04:05;21.00;54.90
3699;DHT22;1865;50.918;7.092;2022-09-09T04:06:31;21.10;55.00
3699;DHT22;1865;50.918;7.092;2022-09-09T04:08:56;21.10;54.90
3699;DHT22;1865;50.918;7.092;2022-09-09T04:11:22;21.20;55.00
3699;DHT22;1865;50.918;7.092;2022-09-09T04:13:48;21.20;55.30
3699;DHT22;1865;50.918;7.092;2022-09-09T04:16:14;21.20;54.80
3699;DHT22;1865;50.918;7.092;2022-09-09T04:18:40;21.30;54.90
3699;DHT22;1865;50.918;7.092;2022-09-09T04:21:06;21.20;54.90
3699;DHT22;1865;50.918;7.092;2022-09-09T04:23:33;21.30;55.20
3699;DHT22;1865;50.918;7.092;2022-09-09T04:26:02;21.30;55.00
3699;DHT22;1865;50.918;7.092;2022-09-09T04:28:32;21.30;54.90
3699;DHT22;1865;50.918;7.092;2022-09-09T04:31:05;21.20;54.90
3699;DHT22;1865;50.918;7.092;2022-09-09T04:33:31;21.20;55.30
3699;DHT22;1865;50.918;7.092;2022-09-09T04:35:57;21.10;55.40
3699;DHT22;1865;50.918;7.092;2022-09-09T04:38:22;21.20;55.40
3699;DHT22;1865;50.918;7.092;2022-09-09T04:40:49;21.10;55.70
3699;DHT22;1865;50.918;7.092;2022-09-09T04:43:17;21.10;55.60
3699;DHT22;1865;50.918;7.092;2022-09-09T04:45:46;21.10;55.50
3699;DHT22;1865;50.918;7.092;2022-09-09T04:48:12;21.10;55.50
3699;DHT22;1865;50.918;7.092;2022-09-09T04:50:39;21.10;55.90
3699;DHT22;1865;50.918;7.092;2022-09-09T04:53:06;21.00;55.70
3699;DHT22;1865;50.918;7.092;2022-09-09T04:55:32;21.00;55.70
3699;DHT22;1865;50.918;7.092;2022-09-09T04:58:04;21.00;55.50
3699;DHT22;1865;50.918;7.092;2022-09-09T05:00:30;20.90;55.80
3699;DHT22;1865;50.918;7.092;2022-09-09T05:02:55;21.00;55.60
3699;DHT22;1865;50.918;7.092;2022-09-09T05:05:21;21.00;55.70
3699;DHT22;1865;50.918;7.092;2022-09-09T05:07:48;21.00;55.70
3699;DHT22;1865;50.918;7.092;2022-09-09T05:10:14;21.00;55.60
3699;DHT22;1865;50.918;7.092;2022-09-09T05:12:43;21.00;55.60
3699;DHT22;1865;50.918;7.092;2022-09-09T05:15:18;21.00;55.60
3699;DHT22;1865;50.918;7.092;2022-09-09T05:17:44;21.00;55.70
3699;DHT22;1865;50.918;7.092;2022-09-09T05:20:09;21.00;55.70
3699;DHT22;1865;50.918;7.092;2022-09-09T05:22:36;21.10;55.70
3699;DHT22;1865;50.918;7.092;2022-09-09T05:25:01;21.00;56.30
3699;DHT22;1865;50.918;7.092;2022-09-09T05:27:27;21.00;55.60
3699;DHT22;1865;50.918;7.092;2022-09-09T05:29:52;21.00;55.70
3699;DHT22;1865;50.918;7.092;2022-09-09T05:32:18;21.00;55.90
3699;DHT22;1865;50.918;7.092;2022-09-09T05:34:43;21.00;56.10
3699;DHT22;1865;50.918;7.092;2022-09-09T05:37:09;20.90;56.50
3699;DHT22;1865;50.918;7.092;2022-09-09T05:39:34;21.00;56.40
3699;DHT22;1865;50.918;7.092;2022-09-09T05:42:03;20.90;56.80
3699;DHT22;1865;50.918;7.092;2022-09-09T05:44:30;21.00;56.80
3699;DHT22;1865;50.918;7.092;2022-09-09T05:46:55;21.00;56.20
3699;DHT22;1865;50.918;7.092;2022-09-09T05:49:21;21.00;56.20
3699;DHT22;1865;50.918;7.092;2022-09-09T05:51:47;21.10;56.00
3699;DHT22;1865;50.918;7.092;2022-09-09T05:54:16;21.10;55.90
3699;DHT22;1865;50.918;7.092;2022-09-09T05:56:46;21.10;55.40
3699;DHT22;1865;50.918;7.092;2022-09-09T05:59:12;21.10;55.40
3699;DHT22;1865;50.918;7.092;2022-09-09T06:01:38;21.20;55.30
3699;DHT22;1865;50.918;7.092;2022-09-09T06:04:09;21.10;55.00
3699;DHT22;1865;50.918;7.092;2022-09-09T06:06:38;21.10;55.20
3699;DHT22;1865;50.918;7.092;2022-09-09T06:09:07;21.20;54.80
3699;DHT22;1865;50.918;7.092;2022-09-09T06:11:37;21.20;54.50
3699;DHT22;1865;50.918;7.092;2022-09-09T06:14:03;21.20;54.40
3699;DHT22;1865;50.918;7.092;2022-09-09T06:16:30;21.30;54.50
3699;DHT22;1865;50.918;7.092;2022-09-09T06:18:58;21.20;53.90
3699;DHT22;1865;50.918;7.092;2022-09-09T06:21:27;21.30;54.10
3699;DHT22;1865;50.918;7.092;2022-09-09T06:23:54;21.40;54.00
3699;DHT22;1865;50.918;7.092;2022-09-09T06:26:21;21.40;53.90
3699;DHT22;1865;50.918;7.092;2022-09-09T06:28:49;21.40;54.40
3699;DHT22;1865;50.918;7.092;2022-09-09T06:31:17;21.50;53.20
3699;DHT22;1865;50.918;7.092;2022-09-09T06:33:51;21.50;53.40
3699;DHT22;1865;50.918;7.092;2022-09-09T06:36:19;21.50;52.90
3699;DHT22;1865;50.918;7.092;2022-09-09T06:38:46;21.50;52.90
3699;DHT22;1865;50.918;7.092;2022-09-09T06:41:13;21.60;52.90
3699;DHT22;1865;50.918;7.092;2022-09-09T06:43:40;21.60;52.70
3699;DHT22;1865;50.918;7.092;2022-09-09T06:46:12;21.70;52.50
3699;DHT22;1865;50.918;7.092;2022-09-09T06:48:42;21.60;52.10
3699;DHT22;1865;50.918;7.092;2022-09-09T06:51:10;21.60;52.10
3699;DHT22;1865;50.918;7.092;2022-09-09T06:53:39;21.60;52.20
3699;DHT22;1865;50.918;7.092;2022-09-09T06:56:17;21.60;52.10
3699;DHT22;1865;50.918;7.092;2022-09-09T06:58:44;21.50;52.00
3699;DHT22;1865;50.918;7.092;2022-09-09T07:01:11;21.40;52.40
3699;DHT22;1865;50.918;7.092;2022-09-09T07:03:41;21.40;52.30
3699;DHT22;1865;50.918;7.092;2022-09-09T07:06:15;21.40;52.30
3699;DHT22;1865;50.918;7.092;2022-09-09T07:08:43;21.50;52.50
3699;DHT22;1865;50.918;7.092;2022-09-09T07:11:09;21.60;52.10
3699;DHT22;1865;50.918;7.092;2022-09-09T07:13:36;21.70;51.70
3699;DHT22;1865;50.918;7.092;2022-09-09T07:16:09;21.80;50.30
3699;DHT22;1865;50.918;7.092;2022-09-09T07:18:34;21.80;50.90
3699;DHT22;1865;50.918;7.092;2022-09-09T07:21:02;21.90;50.80
3699;DHT22;1865;50.918;7.092;2022-09-09T07:23:29;22.00;49.80
3699;DHT22;1865;50.918;7.092;2022-09-09T07:25:57;22.20;49.90
3699;DHT22;1865;50.918;7.092;2022-09-09T07:28:25;22.20;49.00
3699;DHT22;1865;50.918;7.092;2022-09-09T07:30:56;22.10;48.40
3699;DHT22;1865;50.918;7.092;2022-09-09T07:33:23;22.20;48.40
3699;DHT22;1865;50.918;7.092;2022-09-09T07:35:50;22.20;48.20
3699;DHT22;1865;50.918;7.092;2022-09-09T07:38:16;22.30;48.40
3699;DHT22;1865;50.918;7.092;2022-09-09T07:40:41;22.40;47.70
3699;DHT22;1865;50.918;7.092;2022-09-09T07:43:07;22.40;47.10
3699;DHT22;1865;50.918;7.092;2022-09-09T07:45:34;22.50;47.80
3699;DHT22;1865;50.918;7.092;2022-09-09T07:48:00;22.50;48.70
3699;DHT22;1865;50.918;7.092;2022-09-09T07:50:26;22.60;46.70
3699;DHT22;1865;50.918;7.092;2022-09-09T07:52:52;22.70;47.20
3699;DHT22;1865;50.918;7.092;2022-09-09T07:55:19;22.90;46.40
3699;DHT22;1865;50.918;7.092;2022-09-09T07:57:44;23.10;46.40
3699;DHT22;1865;50.918;7.092;2022-09-09T08:00:11;23.20;46.00
3699;DHT22;1865;50.918;7.092;2022-09-09T08:02:36;23.00;44.60
3699;DHT22;1865;50.918;7.092;2022-09-09T08:05:02;22.90;46.00
3699;DHT22;1865;50.918;7.092;2022-09-09T08:07:28;23.00;44.70
3699;DHT22;1865;50.918;7.092;2022-09-09T08:09:56;23.00;44.90
3699;DHT22;1865;50.918;7.092;2022-09-09T08:12:23;22.80;44.70
3699;DHT22;1865;50.918;7.092;2022-09-09T08:14:49;22.80;44.60
3699;DHT22;1865;50.918;7.092;2022-09-09T08:17:15;22.80;45.30
3699;DHT22;1865;50.918;7.092;2022-09-09T08:19:40;23.00;44.70
3699;DHT22;1865;50.918;7.092;2022-09-09T08:22:07;23.10;44.70
3699;DHT22;1865;50.918;7.092;2022-09-09T08:24:34;23.10;44.30
3699;DHT22;1865;50.918;7.092;2022-09-09T08:27:01;23.00;43.80
3699;DHT22;1865;50.918;7.092;2022-09-09T08:29:28;23.00;43.50
3699;DHT22;1865;50.918;7.092;2022-09-09T08:31:56;22.90;43.60
3699;DHT22;1865;50.918;7.092;2022-09-09T08:34:23;23.00;43.50
3699;DHT22;1865;50.918;7.092;2022-09-09T08:36:50;23.00;43.10
3699;DHT22;1865;50.918;7.092;2022-09-09T08:39:17;23.20;43.10
3699;DHT22;1865;50.918;7.092;2022-09-09T08:47:42;23.20;42.20
3699;DHT22;1865;50.918;7.092;2022-09-09T08:50:49;23.10;42.80
3699;DHT22;1865;50.918;7.092;2022-09-09T08:53:27;23.10;43.00
3699;DHT22;1865;50.918;7.092;2022-09-09T08:56:02;23.00;43.40
3699;DHT22;1865;50.918;7.092;2022-09-09T08:58:34;22.90;42.90
3699;DHT22;1865;50.918;7.092;2022-09-09T09:01:29;22.90;42.20
3699;DHT22;1865;50.918;7.092;2022-09-09T09:06:50;23.00;42.90
3699;DHT22;1865;50.918;7.092;2022-09-09T09:09:45;23.10;42.40
3699;DHT22;1865;50.918;7.092;2022-09-09T09:12:23;23.40;42.50
3699;DHT22;1865;50.918;7.092;2022-09-09T09:14:51;23.50;41.20
3699;DHT22;1865;50.918;7.092;2022-09-09T09:17:21;23.40;41.80
3699;DHT22;1865;50.918;7.092;2022-09-09T09:19:49;23.30;40.80
3699;DHT22;1865;50.918;7.092;2022-09-09T09:22:19;23.40;40.60
3699;DHT22;1865;50.918;7.092;2022-09-09T09:24:55;23.70;40.70
3699;DHT22;1865;50.918;7.092;2022-09-09T09:27:35;23.80;40.60
3699;DHT22;1865;50.918;7.092;2022-09-09T09:30:17;23.90;40.90
3699;DHT22;1865;50.918;7.092;2022-09-09T09:32:55;24.00;39.60
3699;DHT22;1865;50.918;7.092;2022-09-09T09:35:21;24.00;39.50
3699;DHT22;1865;50.918;7.092;2022-09-09T09:37:48;23.60;38.90
3699;DHT22;1865;50.918;7.092;2022-09-09T09:40:17;23.40;40.10
3699;DHT22;1865;50.918;7.092;2022-09-09T09:42:59;23.30;40.90
3699;DHT22;1865;50.918;7.092;2022-09-09T09:45:34;23.30;40.50
3699;DHT22;1865;50.918;7.092;2022-09-09T09:48:09;23.20;41.10
3699;DHT22;1865;50.918;7.092;2022-09-09T09:50:49;23.30;41.30
3699;DHT22;1865;50.918;7.092;2022-09-09T09:53:22;23.10;41.20
3699;DHT22;1865;50.918;7.092;2022-09-09T09:56:04;23.20;41.10
3699;DHT22;1865;50.918;7.092;2022-09-09T09:58:32;23.20;41.50
3699;DHT22;1865;50.918;7.092;2022-09-09T10:01:00;23.30;41.30
3699;DHT22;1865;50.918;7.092;2022-09-09T10:03:31;23.30;41.10
3699;DHT22;1865;50.918;7.092;2022-09-09T10:05:57;23.50;40.70
3699;DHT22;1865;50.918;7.092;2022-09-09T10:08:24;23.50;40.70
3699;DHT22;1865;50.918;7.092;2022-09-09T10:11:12;23.70;41.10
3699;DHT22;1865;50.918;7.092;2022-09-09T10:19:16;23.80;38.80
3699;DHT22;1865;50.918;7.092;2022-09-09T10:30:20;23.60;39.60
3699;DHT22;1865;50.918;7.092;2022-09-09T10:32:51;23.50;39.30
3699;DHT22;1865;50.918;7.092;2022-09-09T10:35:33;23.50;38.90
3699;DHT22;1865;50.918;7.092;2022-09-09T10:38:18;23.60;39.10
3699;DHT22;1865;50.918;7.092;2022-09-09T10:43:41;23.90;39.10
3699;DHT22;1865;50.918;7.092;2022-09-09T10:57:07;23.90;39.00
3699;DHT22;1865;50.918;7.092;2022-09-09T10:59:40;24.00;39.20
3699;DHT22;1865;50.918;7.092;2022-09-09T11:02:17;23.90;38.60
3699;DHT22;1865;50.918;7.092;2022-09-09T11:07:29;23.80;38.10
3699;DHT22;1865;50.918;7.092;2022-09-09T11:10:02;23.90;38.30
3699;DHT22;1865;50.918;7.092;2022-09-09T11:12:32;24.00;37.80
3699;DHT22;1865;50.918;7.092;2022-09-09T11:15:07;24.00;37.50
3699;DHT22;1865;50.918;7.092;2022-09-09T11:17:44;24.10;37.90
3699;DHT22;1865;50.918;7.092;2022-09-09T11:20:14;24.10;38.40
3699;DHT22;1865;50.918;7.092;2022-09-09T11:22:58;24.30;37.50
3699;DHT22;1865;50.918;7.092;2022-09-09T11:25:31;24.30;37.80
3699;DHT22;1865;50.918;7.092;2022-09-09T11:33:37;24.20;37.50
3699;DHT22;1865;50.918;7.092;2022-09-09T11:38:52;24.10;37.30
3699;DHT22;1865;50.918;7.092;2022-09-09T11:41:20;24.20;36.70
3699;DHT22;1865;50.918;7.092;2022-09-09T11:43:53;24.30;36.70
3699;DHT22;1865;50.918;7.092;2022-09-09T11:46:31;24.30;36.70
3699;DHT22;1865;50.918;7.092;2022-09-09T11:49:01;24.40;36.30
3699;DHT22;1865;50.918;7.092;2022-09-09T11:51:28;24.40;36.40
3699;DHT22;1865;50.918;7.092;2022-09-09T11:56:44;24.40;37.20
3699;DHT22;1865;50.918;7.092;2022-09-09T11:59:27;24.60;36.70
3699;DHT22;1865;50.918;7.092;2022-09-09T12:02:08;24.60;35.80
3699;DHT22;1865;50.918;7.092;2022-09-09T12:04:39;24.70;36.60
3699;DHT22;1865;50.918;7.092;2022-09-09T12:12:32;24.70;36.60
3699;DHT22;1865;50.918;7.092;2022-09-09T12:15:01;24.80;37.30
3699;DHT22;1865;50.918;7.092;2022-09-09T12:17:31;24.70;36.80
3699;DHT22;1865;50.918;7.092;2022-09-09T12:20:12;24.50;37.10
3699;DHT22;1865;50.918;7.092;2022-09-09T12:33:51;24.80;36.50
3699;DHT22;1865;50.918;7.092;2022-09-09T12:36:30;24.80;36.10
3699;DHT22;1865;50.918;7.092;2022-09-09T12:38:59;24.70;36.20
3699;DHT22;1865;50.918;7.092;2022-09-09T12:41:36;24.70;36.30
3699;DHT22;1865;50.918;7.092;2022-09-09T12:44:06;24.70;35.40
3699;DHT22;1865;50.918;7.092;2022-09-09T12:46:38;24.80;35.80
3699;DHT22;1865;50.918;7.092;2022-09-09T12:51:50;24.90;36.10
3699;DHT22;1865;50.918;7.092;2022-09-09T12:54:15;24.80;35.60
3699;DHT22;1865;50.918;7.092;2022-09-09T12:56:47;24.60;35.70
3699;DHT22;1865;50.918;7.092;2022-09-09T12:59:37;24.60;36.00
3699;DHT22;1865;50.918;7.092;2022-09-09T13:02:24;24.50;36.40
3699;DHT22;1865;50.918;7.092;2022-09-09T13:04:51;24.60;35.70
3699;DHT22;1865;50.918;7.092;2022-09-09T13:07:18;24.60;36.40
3699;DHT22;1865;50.918;7.092;2022-09-09T13:09:45;24.80;36.00
3699;DHT22;1865;50.918;7.092;2022-09-09T13:12:16;24.80;35.70
3699;DHT22;1865;50.918;7.092;2022-09-09T13:14:46;24.90;36.00
3699;DHT22;1865;50.918;7.092;2022-09-09T13:17:24;25.00;36.00
3699;DHT22;1865;50.918;7.092;2022-09-09T13:19:52;24.90;36.40
3699;DHT22;1865;50.918;7.092;2022-09-09T13:22:36;24.80;36.40
3699;DHT22;1865;50.918;7.092;2022-09-09T13:27:38;24.70;36.20
3699;DHT22;1865;50.918;7.092;2022-09-09T13:30:39;24.90;36.70
3699;DHT22;1865;50.918;7.092;2022-09-09T13:33:18;24.80;36.90
3699;DHT22;1865;50.918;7.092;2022-09-09T13:35:52;24.70;37.00
3699;DHT22;1865;50.918;7.092;2022-09-09T13:38:19;25.00;37.50
3699;DHT22;1865;50.918;7.092;2022-09-09T13:40:56;25.50;37.10
3699;DHT22;1865;50.918;7.092;2022-09-09T13:43:24;26.10;36.50
3699;DHT22;1865;50.918;7.092;2022-09-09T13:45:57;26.50;34.20
3699;DHT22;1865;50.918;7.092;2022-09-09T13:48:24;26.80;34.20
3699;DHT22;1865;50.918;7.092;2022-09-09T13:51:01;26.80;34.00
3699;DHT22;1865;50.918;7.092;2022-09-09T13:53:29;26.70;34.40
3699;DHT22;1865;50.918;7.092;2022-09-09T13:55:57;26.60;35.00
3699;DHT22;1865;50.918;7.092;2022-09-09T13:58:24;26.30;36.10
3699;DHT22;1865;50.918;7.092;2022-09-09T14:00:53;25.90;36.40
3699;DHT22;1865;50.918;7.092;2022-09-09T14:03:19;25.70;36.80
3699;DHT22;1865;50.918;7.092;2022-09-09T14:05:45;25.70;35.60
3699;DHT22;1865;50.918;7.092;2022-09-09T14:08:24;26.00;36.20
3699;DHT22;1865;50.918;7.092;2022-09-09T14:10:50;26.20;35.70
3699;DHT22;1865;50.918;7.092;2022-09-09T14:13:15;26.40;35.80
3699;DHT22;1865;50.918;7.092;2022-09-09T14:15:41;26.20;34.90
3699;DHT22;1865;50.918;7.092;2022-09-09T14:18:12;25.80;35.60
3699;DHT22;1865;50.918;7.092;2022-09-09T14:20:39;25.80;36.70
3699;DHT22;1865;50.918;7.092;2022-09-09T14:23:04;25.70;37.00
3699;DHT22;1865;50.918;7.092;2022-09-09T14:25:30;25.80;37.50
3699;DHT22;1865;50.918;7.092;2022-09-09T14:27:56;26.00;37.20
3699;DHT22;1865;50.918;7.092;2022-09-09T14:30:22;26.10;37.70
3699;DHT22;1865;50.918;7.092;2022-09-09T14:32:48;26.00;37.50
3699;DHT22;1865;50.918;7.092;2022-09-09T14:35:14;25.90;38.20
3699;DHT22;1865;50.918;7.092;2022-09-09T14:37:40;25.60;38.40
3699;DHT22;1865;50.918;7.092;2022-09-09T14:40:06;25.40;38.80
3699;DHT22;1865;50.918;7.092;2022-09-09T14:42:32;25.10;39.10
3699;DHT22;1865;50.918;7.092;2022-09-09T14:44:58;25.10;39.10
3699;DHT22;1865;50.918;7.092;2022-09-09T14:47:23;25.10;38.80
3699;DHT22;1865;50.918;7.092;2022-09-09T14:49:50;25.00;39.60
3699;DHT22;1865;50.918;7.092;2022-09-09T14:52:17;24.90;39.50
3699;DHT22;1865;50.918;7.092;2022-09-09T14:54:44;24.70;39.90
3699;DHT22;1865;50.918;7.092;2022-09-09T14:57:10;24.60;39.70
3699;DHT22;1865;50.918;7.092;2022-09-09T14:59:35;24.60;40.10
3699;DHT22;1865;50.918;7.092;2022-09-09T15:02:01;24.60;40.10
3699;DHT22;1865;50.918;7.092;2022-09-09T15:04:29;24.60;40.20
3699;DHT22;1865;50.918;7.092;2022-09-09T15:06:55;24.40;42.00
3699;DHT22;1865;50.918;7.092;2022-09-09T15:09:20;24.40;43.50
3699;DHT22;1865;50.918;7.092;2022-09-09T15:11:48;24.30;45.10
3699;DHT22;1865;50.918;7.092;2022-09-09T15:14:14;24.10;46.50
3699;DHT22;1865;50.918;7.092;2022-09-09T15:16:41;24.00;47.50
3699;DHT22;1865;50.918;7.092;2022-09-09T15:19:07;24.00;48.00
3699;DHT22;1865;50.918;7.092;2022-09-09T15:21:36;23.90;48.60
3699;DHT22;1865;50.918;7.092;2022-09-09T15:24:03;24.00;48.30
3699;DHT22;1865;50.918;7.092;2022-09-09T15:26:30;23.90;47.60
3699;DHT22;1865;50.918;7.092;2022-09-09T15:28:56;23.90;47.90
3699;DHT22;1865;50.918;7.092;2022-09-09T15:31:27;24.00;47.60
3699;DHT22;1865;50.918;7.092;2022-09-09T15:34:01;24.00;47.40
3699;DHT22;1865;50.918;7.092;2022-09-09T15:36:37;24.00;47.70
3699;DHT22;1865;50.918;7.092;2022-09-09T15:39:05;24.10;48.00
3699;DHT22;1865;50.918;7.092;2022-09-09T15:41:31;24.00;48.40
3699;DHT22;1865;50.918;7.092;2022-09-09T15:43:57;23.90;49.10
3699;DHT22;1865;50.918;7.092;2022-09-09T15:46:32;23.90;50.70
3699;DHT22;1865;50.918;7.092;2022-09-09T15:49:07;23.80;50.10
3699;DHT22;1865;50.918;7.092;2022-09-09T15:51:35;23.60;51.40
3699;DHT22;1865;50.918;7.092;2022-09-09T15:54:00;23.50;50.70
3699;DHT22;1865;50.918;7.092;2022-09-09T15:56:27;23.20;51.50
3699;DHT22;1865;50.918;7.092;2022-09-09T15:58:58;22.90;51.60
3699;DHT22;1865;50.918;7.092;2022-09-09T16:01:24;22.60;49.70
3699;DHT22;1865;50.918;7.092;2022-09-09T16:03:50;22.30;51.00
3699;DHT22;1865;50.918;7.092;2022-09-09T16:06:18;22.30;51.20
3699;DHT22;1865;50.918;7.092;2022-09-09T16:08:45;22.10;51.10
3699;DHT22;1865;50.918;7.092;2022-09-09T16:11:14;21.80;53.00
3699;DHT22;1865;50.918;7.092;2022-09-09T16:13:42;21.70;54.70
3699;DHT22;1865;50.918;7.092;2022-09-09T16:16:10;21.60;56.00
3699;DHT22;1865;50.918;7.092;2022-09-09T16:18:41;21.50;57.20
3699;DHT22;1865;50.918;7.092;2022-09-09T16:21:14;21.30;59.00
3699;DHT22;1865;50.918;7.092;2022-09-09T16:23:40;21.20;59.60
3699;DHT22;1865;50.918;7.092;2022-09-09T16:26:05;20.90;60.60
3699;DHT22;1865;50.918;7.092;2022-09-09T16:28:31;20.90;60.80
3699;DHT22;1865;50.918;7.092;2022-09-09T16:30:57;20.90;61.50
3699;DHT22;1865;50.918;7.092;2022-09-09T16:33:23;20.80;61.00
3699;DHT22;1865;50.918;7.092;2022-09-09T16:35:51;20.80;61.30
3699;DHT22;1865;50.918;7.092;2022-09-09T16:38:16;20.80;61.10
3699;DHT22;1865;50.918;7.092;2022-09-09T16:40:42;20.70;60.90
3699;DHT22;1865;50.918;7.092;2022-09-09T16:43:08;20.60;61.00
3699;DHT22;1865;50.918;7.092;2022-09-09T16:45:44;20.50;62.30
3699;DHT22;1865;50.918;7.092;2022-09-09T16:48:11;20.60;61.60
3699;DHT22;1865;50.918;7.092;2022-09-09T16:50:37;20.60;62.30
3699;DHT22;1865;50.918;7.092;2022-09-09T16:53:04;20.70;62.10
3699;DHT22;1865;50.918;7.092;2022-09-09T16:55:32;20.70;62.20
3699;DHT22;1865;50.918;7.092;2022-09-09T16:57:58;20.70;62.60
3699;DHT22;1865;50.918;7.092;2022-09-09T17:00:24;20.70;62.30
3699;DHT22;1865;50.918;7.092;2022-09-09T17:02:49;20.80;62.50
3699;DHT22;1865;50.918;7.092;2022-09-09T17:05:16;20.90;62.40
3699;DHT22;1865;50.918;7.092;2022-09-09T17:07:43;21.10;62.60
3699;DHT22;1865;50.918;7.092;2022-09-09T17:10:10;21.00;62.20
3699;DHT22;1865;50.918;7.092;2022-09-09T17:12:36;21.10;62.20
3699;DHT22;1865;50.918;7.092;2022-09-09T17:15:01;21.10;61.80
3699;DHT22;1865;50.918;7.092;2022-09-09T17:17:28;21.20;61.70
3699;DHT22;1865;50.918;7.092;2022-09-09T17:19:54;21.30;61.90
3699;DHT22;1865;50.918;7.092;2022-09-09T17:22:20;21.30;61.70
3699;DHT22;1865;50.918;7.092;2022-09-09T17:24:46;21.30;61.70
3699;DHT22;1865;50.918;7.092;2022-09-09T17:27:12;21.30;61.60
3699;DHT22;1865;50.918;7.092;2022-09-09T17:29:39;21.30;61.80
3699;DHT22;1865;50.918;7.092;2022-09-09T17:32:06;21.20;61.70
3699;DHT22;1865;50.918;7.092;2022-09-09T17:34:33;21.30;61.80
3699;DHT22;1865;50.918;7.092;2022-09-09T17:37:00;21.30;61.60
3699;DHT22;1865;50.918;7.092;2022-09-09T17:39:25;21.30;62.20
3699;DHT22;1865;50.918;7.092;2022-09-09T17:44:18;21.30;62.20
3699;DHT22;1865;50.918;7.092;2022-09-09T17:46:45;21.20;62.10
3699;DHT22;1865;50.918;7.092;2022-09-09T17:49:14;21.30;62.10
3699;DHT22;1865;50.918;7.092;2022-09-09T17:51:41;21.20;62.30
3699;DHT22;1865;50.918;7.092;2022-09-09T17:54:18;21.10;61.90
3699;DHT22;1865;50.918;7.092;2022-09-09T17:56:45;21.00;61.90
3699;DHT22;1865;50.918;7.092;2022-09-09T17:59:16;21.00;62.50
3699;DHT22;1865;50.918;7.092;2022-09-09T18:01:43;21.10;62.20
3699;DHT22;1865;50.918;7.092;2022-09-09T18:04:10;21.00;62.50
3699;DHT22;1865;50.918;7.092;2022-09-09T18:06:43;21.00;62.90
3699;DHT22;1865;50.918;7.092;2022-09-09T18:09:11;20.90;62.80
3699;DHT22;1865;50.918;7.092;2022-09-09T18:11:41;21.00;62.70